createdAt,value
2018-02-02T00:01:57.478Z,99847.55
2018-02-02T00:04:25.011Z,99836.10
2018-02-02T00:06:52.527Z,99842.44
2018-02-02T00:09:20.093Z,99837.62
2018-02-02T00:11:47.613Z,99839.80
2018-02-02T00:14:15.164Z,99841.68
2018-02-02T00:16:42.666Z,99841.67
2018-02-02T00:19:10.178Z,99844.39
2018-02-02T00:21:37.705Z,99843.97
2018-02-02T00:24:05.213Z,99847.98
2018-02-02T00:26:32.737Z,99851.05
2018-02-02T00:29:00.242Z,99852.46
2018-02-02T00:31:27.748Z,99847.63
2018-02-02T00:33:55.246Z,99851.66
2018-02-02T00:36:22.820Z,99851.27
2018-02-02T00:38:50.325Z,99861.05
2018-02-02T00:41:17.855Z,99858.34
2018-02-02T00:43:45.418Z,99859.38
2018-02-02T00:46:15.696Z,99864.29
2018-02-02T00:48:43.285Z,99857.64
2018-02-02T00:54:18.316Z,99856.50
2018-02-02T00:56:45.825Z,99856.47
2018-02-02T00:59:13.324Z,99864.48
2018-02-02T01:01:40.920Z,99857.01
2018-02-02T01:04:08.478Z,99864.94
2018-02-02T01:06:36.040Z,99861.03
2018-02-02T01:09:03.662Z,99861.07
2018-02-02T01:11:31.268Z,99858.88
2018-02-02T01:13:58.835Z,99869.96
2018-02-02T01:16:26.399Z,99867.34
2018-02-02T01:18:53.895Z,99866.09
2018-02-02T01:21:21.503Z,99867.92
2018-02-02T01:23:49.061Z,99863.92
2018-02-02T01:26:16.558Z,99866.19
2018-02-02T01:28:44.082Z,99870.11
2018-02-02T01:31:11.605Z,99869.30
2018-02-02T01:33:39.100Z,99868.84
2018-02-02T01:36:06.601Z,99870.64
2018-02-02T01:38:34.114Z,99869.77
2018-02-02T01:41:01.619Z,99870.17
2018-02-02T01:43:29.144Z,99869.77
2018-02-02T01:45:56.644Z,99868.86
2018-02-02T01:48:24.264Z,99869.32
2018-02-02T01:50:51.812Z,99869.47
2018-02-02T01:53:19.336Z,99872.16
2018-02-02T01:55:46.847Z,99870.87
2018-02-02T01:58:14.340Z,99873.18
2018-02-02T02:00:41.848Z,99871.37
2018-02-02T02:03:09.350Z,99870.48
2018-02-02T02:05:36.857Z,99869.23
2018-02-02T02:08:04.356Z,99870.20
2018-02-02T02:10:31.893Z,99871.08
2018-02-02T02:12:59.400Z,99864.95
2018-02-02T02:15:26.901Z,99871.14
2018-02-02T02:17:54.402Z,99875.05
2018-02-02T02:20:22.039Z,99875.62
2018-02-02T02:22:49.585Z,99876.87
2018-02-02T02:25:17.086Z,99877.73
2018-02-02T02:27:44.605Z,99872.46
2018-02-02T02:30:12.100Z,99872.09
2018-02-02T02:32:39.610Z,99870.84
2018-02-02T02:35:07.189Z,99867.79
2018-02-02T02:37:34.688Z,99873.08
2018-02-02T02:40:02.201Z,99870.05
2018-02-02T02:42:29.707Z,99869.99
2018-02-02T02:44:57.211Z,99870.07
2018-02-02T02:47:24.762Z,99867.42
2018-02-02T02:49:52.258Z,99866.08
2018-02-02T02:52:19.773Z,99870.93
2018-02-02T02:54:47.318Z,99869.66
2018-02-02T02:57:14.833Z,99869.23
2018-02-02T02:59:42.339Z,99871.91
2018-02-02T03:02:09.841Z,99867.10
2018-02-02T03:04:37.354Z,99872.41
2018-02-02T03:07:04.860Z,99874.14
2018-02-02T03:09:32.418Z,99882.97
2018-02-02T03:11:59.950Z,99883.92
2018-02-02T03:14:27.455Z,99886.54
2018-02-02T03:16:54.957Z,99878.20
2018-02-02T03:19:22.548Z,99885.30
2018-02-02T03:21:50.048Z,99880.41
2018-02-02T03:24:17.754Z,99882.23
2018-02-02T03:26:45.264Z,99889.73
2018-02-02T03:29:12.782Z,99890.23
2018-02-02T03:31:40.377Z,99892.42
2018-02-02T03:34:07.885Z,99891.48
2018-02-02T03:36:35.473Z,99895.96
2018-02-02T03:39:02.994Z,99893.33
2018-02-02T03:41:30.550Z,99895.94
2018-02-02T03:43:58.070Z,99903.88
2018-02-02T03:46:25.585Z,99904.34
2018-02-02T03:48:53.104Z,99903.96
2018-02-02T03:51:20.617Z,99893.48
2018-02-02T03:53:48.121Z,99893.05
2018-02-02T03:56:15.680Z,99898.70
2018-02-02T03:58:43.179Z,99898.30
2018-02-02T04:01:10.695Z,99898.77
2018-02-02T04:03:38.316Z,99901.34
2018-02-02T04:06:05.881Z,99902.28
2018-02-02T04:08:33.449Z,99904.89
2018-02-02T04:11:00.961Z,99905.36
2018-02-02T04:13:28.561Z,99902.27
2018-02-02T04:15:56.128Z,99910.25
2018-02-02T04:18:23.641Z,99908.95
2018-02-02T04:20:51.621Z,99912.00
2018-02-02T04:23:19.124Z,99921.23
2018-02-02T04:25:46.628Z,99923.93
2018-02-02T04:28:14.131Z,99924.38
2018-02-02T04:30:41.655Z,99926.14
2018-02-02T04:33:09.154Z,99922.64
2018-02-02T04:35:37.971Z,99912.09
2018-02-02T04:38:05.661Z,99915.64
2018-02-02T04:40:33.180Z,99921.33
2018-02-02T04:43:00.695Z,99913.44
2018-02-02T04:45:28.389Z,99910.88
2018-02-02T04:47:55.928Z,99919.22
2018-02-02T04:50:23.432Z,99916.60
2018-02-02T04:52:50.950Z,99920.50
2018-02-02T04:55:18.458Z,99930.64
2018-02-02T04:57:45.978Z,99931.09
2018-02-02T05:00:13.533Z,99937.78
2018-02-02T05:02:41.076Z,99942.20
2018-02-02T05:05:08.593Z,99937.83
2018-02-02T05:07:36.104Z,99933.02
2018-02-02T05:10:03.609Z,99938.70
2018-02-02T05:12:31.124Z,99943.55
2018-02-02T05:14:58.628Z,99944.47
2018-02-02T05:17:26.129Z,99943.14
2018-02-02T05:19:53.660Z,99950.19
2018-02-02T05:22:21.382Z,99942.28
2018-02-02T05:24:48.898Z,99929.95
2018-02-02T05:27:16.425Z,99932.59
2018-02-02T05:29:43.942Z,99936.14
2018-02-02T05:32:11.452Z,99936.12
2018-02-02T05:34:38.963Z,99932.05
2018-02-02T05:37:06.479Z,99937.33
2018-02-02T05:39:33.998Z,99932.87
2018-02-02T05:42:01.511Z,99925.84
2018-02-02T05:44:29.035Z,99930.63
2018-02-02T05:46:56.541Z,99928.04
2018-02-02T05:49:24.058Z,99924.91
2018-02-02T05:51:51.569Z,99931.87
2018-02-02T05:54:19.237Z,99933.63
2018-02-02T05:56:46.747Z,99932.69
2018-02-02T05:59:14.274Z,99934.37
2018-02-02T06:01:41.798Z,99929.05
2018-02-02T06:04:09.336Z,99928.97
2018-02-02T06:06:36.862Z,99928.02
2018-02-02T06:09:04.379Z,99933.66
2018-02-02T06:11:31.891Z,99934.95
2018-02-02T06:13:59.407Z,99934.91
2018-02-02T06:16:26.923Z,99939.70
2018-02-02T06:18:54.442Z,99939.22
2018-02-02T06:21:21.987Z,99939.66
2018-02-02T06:23:49.503Z,99940.52
2018-02-02T06:26:17.020Z,99939.61
2018-02-02T06:28:44.533Z,99936.95
2018-02-02T06:31:12.128Z,99936.84
2018-02-02T06:33:39.638Z,99938.11
2018-02-02T06:36:07.145Z,99933.21
2018-02-02T06:38:34.662Z,99947.69
2018-02-02T06:41:02.170Z,99943.77
2018-02-02T06:43:29.738Z,99943.73
2018-02-02T06:45:57.246Z,99944.98
2018-02-02T06:48:24.766Z,99938.88
2018-02-02T06:50:52.281Z,99949.88
2018-02-02T06:53:19.801Z,99951.09
2018-02-02T06:55:47.331Z,99948.86
2018-02-02T06:58:14.862Z,99956.20
2018-02-02T07:00:42.393Z,99956.63
2018-02-02T07:03:09.910Z,99958.81
2018-02-02T07:05:37.431Z,99959.95
2018-02-02T07:08:04.993Z,99954.54
2018-02-02T07:10:32.525Z,99954.05
2018-02-02T07:13:00.032Z,99958.91
2018-02-02T07:15:27.548Z,99962.80
2018-02-02T07:17:55.065Z,99960.50
2018-02-02T07:20:22.577Z,99962.75
2018-02-02T07:22:50.098Z,99966.06
2018-02-02T07:25:17.611Z,99968.42
2018-02-02T07:27:45.126Z,99967.59
2018-02-02T07:30:12.679Z,99974.48
2018-02-02T07:32:40.201Z,99966.45
2018-02-02T07:35:07.701Z,99969.45
2018-02-02T07:37:35.209Z,99969.38
2018-02-02T07:40:02.729Z,99975.06
2018-02-02T07:42:30.238Z,99974.48
2018-02-02T07:44:57.751Z,99971.34
2018-02-02T07:47:25.277Z,99971.92
2018-02-02T07:49:52.800Z,99960.23
2018-02-02T07:52:20.309Z,99961.72
2018-02-02T07:54:47.821Z,99967.22
2018-02-02T07:57:15.411Z,99959.81
2018-02-02T07:59:42.927Z,99967.38
2018-02-02T08:02:10.437Z,99969.25
2018-02-02T08:04:37.945Z,99963.84
2018-02-02T08:07:05.449Z,99973.47
2018-02-02T08:09:32.962Z,99971.10
2018-02-02T08:12:00.468Z,99977.48
2018-02-02T08:14:27.982Z,99975.02
2018-02-02T08:16:55.497Z,99970.22
2018-02-02T08:19:23.021Z,99970.83
2018-02-02T08:21:50.528Z,99967.60
2018-02-02T08:24:18.042Z,99968.16
2018-02-02T08:26:45.541Z,99970.05
2018-02-02T08:29:13.046Z,99973.27
2018-02-02T08:31:40.561Z,99976.13
2018-02-02T08:34:08.078Z,99975.37
2018-02-02T08:36:35.599Z,99975.09
2018-02-02T08:39:03.113Z,99977.73
2018-02-02T08:41:30.810Z,99974.08
2018-02-02T08:46:25.130Z,99975.38
2018-02-02T08:48:52.640Z,99980.70
2018-02-02T08:51:20.150Z,99975.63
2018-02-02T08:53:47.653Z,99978.33
2018-02-02T08:56:15.167Z,99977.07
2018-02-02T08:58:42.681Z,99978.44
2018-02-02T09:01:15.832Z,99975.73
2018-02-02T09:03:43.346Z,99974.73
2018-02-02T09:06:10.866Z,99981.59
2018-02-02T09:08:38.361Z,99981.70
2018-02-02T09:11:05.865Z,99979.30
2018-02-02T09:13:33.372Z,99987.09
2018-02-02T09:16:00.885Z,99987.45
2018-02-02T09:18:28.397Z,99981.73
2018-02-02T09:20:55.932Z,99982.47
2018-02-02T09:23:23.444Z,99976.77
2018-02-02T09:25:50.948Z,99977.70
2018-02-02T09:28:18.476Z,99978.78
2018-02-02T09:30:45.985Z,99975.34
2018-02-02T09:33:13.493Z,99979.41
2018-02-02T09:35:40.999Z,99978.70
2018-02-02T09:38:08.553Z,99981.50
2018-02-02T09:40:36.099Z,99981.42
2018-02-02T09:43:03.605Z,99980.57
2018-02-02T09:45:31.225Z,99982.41
2018-02-02T09:47:58.729Z,99990.95
2018-02-02T09:50:26.279Z,99979.70
2018-02-02T09:52:53.806Z,99982.87
2018-02-02T09:55:21.349Z,99978.27
2018-02-02T09:57:48.908Z,99979.05
2018-02-02T10:00:16.481Z,99978.17
2018-02-02T10:02:43.996Z,99977.19
2018-02-02T10:05:11.504Z,99979.19
2018-02-02T10:07:39.041Z,99968.17
2018-02-02T10:10:06.546Z,99967.12
2018-02-02T10:12:34.079Z,99958.70
2018-02-02T10:15:01.589Z,99957.13
2018-02-02T10:17:29.216Z,99958.88
2018-02-02T10:19:56.722Z,99955.45
2018-02-02T10:22:24.225Z,99948.68
2018-02-02T10:24:51.774Z,99944.59
2018-02-02T10:27:19.330Z,99951.87
2018-02-02T10:29:46.894Z,99946.89
2018-02-02T10:32:14.411Z,99947.70
2018-02-02T10:34:41.924Z,99945.84
2018-02-02T10:37:09.436Z,99939.86
2018-02-02T10:39:36.968Z,99940.87
2018-02-02T10:42:04.475Z,99942.06
2018-02-02T10:44:32.061Z,99935.17
2018-02-02T10:46:59.581Z,99943.94
2018-02-02T10:49:27.156Z,99943.69
2018-02-02T10:51:54.733Z,99932.15
2018-02-02T10:54:22.269Z,99943.23
2018-02-02T10:56:49.802Z,99940.81
2018-02-02T10:59:17.411Z,99942.37
2018-02-02T11:01:44.917Z,99942.41
2018-02-02T11:04:12.431Z,99932.50
2018-02-02T11:06:39.945Z,99936.16
2018-02-02T11:09:07.453Z,99935.83
2018-02-02T11:11:34.998Z,99925.87
2018-02-02T11:14:02.498Z,99930.22
2018-02-02T11:16:30.000Z,99932.80
2018-02-02T11:18:57.513Z,99930.06
2018-02-02T11:21:25.040Z,99932.95
2018-02-02T11:23:52.542Z,99930.50
2018-02-02T11:26:20.071Z,99929.55
2018-02-02T11:28:47.575Z,99927.49
2018-02-02T11:31:15.081Z,99923.52
2018-02-02T11:33:42.585Z,99921.50
2018-02-02T11:36:10.093Z,99926.22
2018-02-02T11:38:37.607Z,99915.57
2018-02-02T11:41:05.139Z,99920.84
2018-02-02T11:43:32.647Z,99919.83
2018-02-02T11:46:00.160Z,99917.63
2018-02-02T11:48:27.669Z,99919.98
2018-02-02T11:50:55.173Z,99921.51
2018-02-02T11:53:22.691Z,99920.81
2018-02-02T11:55:50.195Z,99911.13
2018-02-02T11:58:17.706Z,99915.88
2018-02-02T12:00:45.224Z,99920.34
2018-02-02T12:03:12.739Z,99920.73
2018-02-02T12:05:40.242Z,99913.95
2018-02-02T12:08:07.772Z,99912.76
2018-02-02T12:10:35.291Z,99910.13
2018-02-02T12:13:02.796Z,99909.27
2018-02-02T12:15:30.306Z,99914.58
2018-02-02T12:17:57.817Z,99911.91
2018-02-02T12:20:25.327Z,99908.92
2018-02-02T12:22:55.763Z,99905.94
2018-02-02T12:25:28.838Z,99908.14
2018-02-02T12:28:02.036Z,99908.91
2018-02-02T12:33:37.037Z,99907.27
2018-02-02T12:36:07.066Z,99906.61
2018-02-02T12:38:34.580Z,99911.31
2018-02-02T12:41:02.086Z,99899.11
2018-02-02T12:43:29.586Z,99901.33
2018-02-02T12:45:57.098Z,99907.32
2018-02-02T12:48:36.401Z,99905.41
2018-02-02T12:51:03.910Z,99901.96
2018-02-02T12:53:31.423Z,99896.92
2018-02-02T12:55:58.929Z,99905.77
2018-02-02T12:58:26.437Z,99905.52
2018-02-02T13:00:53.971Z,99904.98
2018-02-02T13:03:21.487Z,99905.12
2018-02-02T13:05:49.019Z,99897.97
2018-02-02T13:08:16.537Z,99899.48
2018-02-02T13:10:44.063Z,99898.97
2018-02-02T13:13:11.597Z,99902.28
2018-02-02T13:15:39.106Z,99905.12
2018-02-02T13:18:06.614Z,99905.77
2018-02-02T13:20:34.121Z,99903.61
2018-02-02T13:23:01.632Z,99900.70
2018-02-02T13:25:29.140Z,99902.17
2018-02-02T13:27:56.644Z,99898.75
2018-02-02T13:30:24.144Z,99904.08
2018-02-02T13:32:51.644Z,99899.08
2018-02-02T13:35:19.154Z,99903.56
2018-02-02T13:37:46.687Z,99905.55
2018-02-02T13:40:14.197Z,99902.92
2018-02-02T13:42:41.709Z,99897.92
2018-02-02T13:45:09.246Z,99896.13
2018-02-02T13:47:36.751Z,99900.52
2018-02-02T13:50:04.281Z,99902.72
2018-02-02T13:52:31.797Z,99893.44
2018-02-02T13:54:59.300Z,99888.66
2018-02-02T13:57:26.829Z,99894.91
2018-02-02T13:59:54.343Z,99898.90
2018-02-02T14:02:21.846Z,99902.70
2018-02-02T14:04:49.352Z,99898.21
2018-02-02T14:07:16.867Z,99893.47
2018-02-02T14:09:44.394Z,99898.72
2018-02-02T14:12:11.896Z,99900.34
2018-02-02T14:14:39.400Z,99894.62
2018-02-02T14:17:06.915Z,99898.70
2018-02-02T14:19:34.414Z,99898.06
2018-02-02T14:22:01.913Z,99899.72
2018-02-02T14:24:29.413Z,99898.41
2018-02-02T14:26:56.924Z,99898.88
2018-02-02T14:29:24.434Z,99898.56
2018-02-02T14:31:51.937Z,99896.14
2018-02-02T14:34:19.453Z,99896.64
2018-02-02T14:36:46.965Z,99896.16
2018-02-02T14:39:14.482Z,99906.18
2018-02-02T14:41:41.986Z,99901.47
2018-02-02T14:44:09.494Z,99906.50
2018-02-02T14:46:37.022Z,99907.11
2018-02-02T14:49:04.524Z,99906.91
2018-02-02T14:51:32.076Z,99907.53
2018-02-02T14:53:59.544Z,99906.47
2018-02-02T14:56:27.041Z,99909.00
2018-02-02T14:58:54.542Z,99910.16
2018-02-02T15:01:22.054Z,99906.34
2018-02-02T15:03:49.564Z,99910.00
2018-02-02T15:06:17.070Z,99910.39
2018-02-02T15:08:44.839Z,99915.17
2018-02-02T15:11:12.347Z,99909.95
2018-02-02T15:13:39.864Z,99906.50
2018-02-02T15:16:07.374Z,99915.83
2018-02-02T15:18:34.887Z,99916.21
2018-02-02T15:21:02.394Z,99912.56
2018-02-02T15:23:29.888Z,99910.53
2018-02-02T15:25:57.380Z,99916.39
2018-02-02T15:28:24.890Z,99909.11
2018-02-02T15:30:52.409Z,99913.22
2018-02-02T15:33:19.929Z,99913.34
2018-02-02T15:35:47.437Z,99918.20
2018-02-02T15:38:14.943Z,99919.55
2018-02-02T15:40:42.448Z,99922.37
2018-02-02T15:43:09.940Z,99923.02
2018-02-02T15:45:37.449Z,99926.81
2018-02-02T15:48:04.963Z,99929.25
2018-02-02T15:50:32.489Z,99925.23
2018-02-02T15:53:00.004Z,99929.16
2018-02-02T15:55:27.508Z,99930.38
2018-02-02T15:57:55.026Z,99930.92
2018-02-02T16:00:22.534Z,99929.41
2018-02-02T16:02:50.056Z,99936.58
2018-02-02T16:05:17.560Z,99933.02
2018-02-02T16:07:45.086Z,99939.27
2018-02-02T16:10:12.595Z,99940.09
2018-02-02T16:12:40.098Z,99935.77
2018-02-02T16:15:07.615Z,99937.19
2018-02-02T16:17:35.131Z,99939.94
2018-02-02T16:20:02.646Z,99944.98
2018-02-02T16:22:30.154Z,99939.47
2018-02-02T16:24:57.654Z,99943.52
2018-02-02T16:27:25.161Z,99945.83
2018-02-02T16:29:52.671Z,99949.84
2018-02-02T16:32:20.186Z,99954.80
2018-02-02T16:34:47.685Z,99956.21
2018-02-02T16:37:15.203Z,99963.44
2018-02-02T16:39:42.717Z,99967.36
2018-02-02T16:42:10.222Z,99966.03
2018-02-02T16:44:37.731Z,99959.39
2018-02-02T16:47:05.232Z,99965.63
2018-02-02T16:49:32.750Z,99963.70
2018-02-02T16:52:00.263Z,99962.37
2018-02-02T16:54:27.782Z,99962.28
2018-02-02T16:56:55.292Z,99964.53
2018-02-02T16:59:22.797Z,99970.08
2018-02-02T17:01:50.300Z,99968.32
2018-02-02T17:04:17.801Z,99970.25
2018-02-02T17:06:45.317Z,99974.89
2018-02-02T17:09:12.817Z,99975.63
2018-02-02T17:11:40.373Z,99980.61
2018-02-02T17:14:07.881Z,99980.18
2018-02-02T17:16:35.394Z,99982.74
2018-02-02T17:19:02.898Z,99979.25
2018-02-02T17:21:30.406Z,99975.24
2018-02-02T17:23:57.924Z,99965.00
2018-02-02T17:26:25.436Z,99978.55
2018-02-02T17:28:52.948Z,99973.73
2018-02-02T17:31:20.458Z,99975.12
2018-02-02T17:33:47.989Z,99978.73
2018-02-02T17:36:15.514Z,99981.70
2018-02-02T17:38:43.026Z,99990.39
2018-02-02T17:41:10.539Z,99986.52
2018-02-02T17:43:38.044Z,99988.91
2018-02-02T17:46:05.572Z,99988.39
2018-02-02T17:48:33.085Z,99985.47
2018-02-02T17:51:00.597Z,99979.21
2018-02-02T17:53:28.100Z,99985.91
2018-02-02T17:55:55.605Z,99988.88
2018-02-02T17:58:23.165Z,99980.00
2018-02-02T18:00:55.664Z,99979.21
2018-02-02T18:03:23.181Z,99981.84
2018-02-02T18:05:50.690Z,99985.73
2018-02-02T18:08:18.209Z,99985.20
2018-02-02T18:10:45.738Z,99986.85
2018-02-02T18:13:13.242Z,99982.77
2018-02-02T18:15:40.762Z,99986.34
2018-02-02T18:18:08.278Z,99983.20
2018-02-02T18:20:35.790Z,99982.41
2018-02-02T18:23:03.301Z,99985.13
2018-02-02T18:25:30.811Z,99980.84
2018-02-02T18:27:58.336Z,99985.13
2018-02-02T18:30:25.875Z,99984.16
2018-02-02T18:32:53.404Z,99983.09
2018-02-02T20:00:18.177Z,99972.94
2018-02-02T20:02:45.700Z,99966.63
2018-02-02T20:05:13.242Z,99974.65
2018-02-02T20:07:41.158Z,99973.24
2018-02-02T20:10:09.032Z,99980.14
2018-02-02T20:12:38.770Z,99976.68
2018-02-02T20:15:06.303Z,99975.36
2018-02-02T20:17:34.836Z,99975.73
2018-02-02T20:20:02.370Z,99978.80
2018-02-02T20:22:30.837Z,99981.09
2018-02-02T20:24:58.350Z,99980.91
2018-02-02T20:27:25.864Z,99981.61
2018-02-02T20:29:58.896Z,99984.83
2018-02-02T20:32:27.345Z,99984.34
2018-02-02T20:34:56.207Z,99984.42
2018-02-02T20:37:26.577Z,99985.20
2018-02-02T20:40:10.040Z,99981.22
2018-02-02T20:42:38.930Z,99981.28
2018-02-02T20:45:06.458Z,99982.09
2018-02-02T20:47:33.973Z,99978.11
2018-02-02T20:50:01.489Z,99986.48
2018-02-02T20:52:46.679Z,99983.85
2018-02-02T20:55:26.515Z,99988.81
2018-02-02T20:57:54.057Z,99987.86
2018-02-02T21:00:21.570Z,99988.23
2018-02-02T21:02:49.077Z,99994.14
2018-02-02T21:05:16.588Z,99993.08
2018-02-02T21:07:44.109Z,99986.13
2018-02-02T21:10:11.620Z,99986.02
2018-02-02T21:12:39.148Z,99986.83
2018-02-02T21:15:07.636Z,99989.45
2018-02-02T21:17:35.150Z,99986.25
2018-02-02T21:20:02.663Z,99985.47
2018-02-02T21:22:30.167Z,99985.50
2018-02-02T21:24:57.679Z,99984.98
2018-02-02T21:27:25.189Z,99980.33
2018-02-02T21:29:52.697Z,99979.94
2018-02-02T21:32:20.209Z,99980.89
2018-02-02T21:34:47.735Z,99985.07
2018-02-02T21:37:15.242Z,99987.39
2018-02-02T21:39:42.922Z,99985.58
2018-02-02T21:42:10.430Z,99986.74
2018-02-02T21:44:37.993Z,99985.47
2018-02-02T21:47:05.498Z,99990.81
2018-02-02T21:49:33.096Z,99990.27
2018-02-02T21:52:00.656Z,99986.28
2018-02-02T21:54:28.439Z,99988.05
2018-02-02T21:56:56.020Z,99995.52
2018-02-02T21:59:23.727Z,99990.12
2018-02-02T22:01:51.232Z,99993.34
2018-02-02T22:04:18.782Z,99990.58
2018-02-02T22:06:46.295Z,99996.14
2018-02-02T22:09:13.797Z,99996.52
2018-02-02T22:11:41.421Z,99999.58
2018-02-02T22:14:08.973Z,99999.01
2018-02-02T22:16:36.548Z,100002.99
2018-02-02T22:19:04.072Z,100007.17
2018-02-02T22:21:31.646Z,100018.57
2018-02-02T22:23:59.132Z,100014.53
2018-02-02T22:26:26.639Z,100010.63
2018-02-02T22:28:54.149Z,100013.34
2018-02-02T22:31:21.665Z,100015.86
2018-02-02T22:33:49.188Z,100015.50
2018-02-02T22:36:16.723Z,100013.17
2018-02-02T22:38:44.256Z,100015.48
2018-02-02T22:41:11.782Z,100016.81
2018-02-02T22:43:39.302Z,100024.02
2018-02-02T22:46:06.825Z,100017.05
2018-02-02T22:48:34.385Z,100007.25
2018-02-02T22:51:01.906Z,100011.16
2018-02-02T22:53:29.435Z,100003.21
2018-02-02T22:55:57.054Z,100012.50
2018-02-02T22:58:25.861Z,100006.89
2018-02-02T23:00:55.422Z,100005.70
2018-02-02T23:03:22.956Z,100016.11
2018-02-02T23:05:50.555Z,100014.34
2018-02-02T23:08:18.706Z,100014.83
2018-02-02T23:10:46.223Z,100014.09
2018-02-02T23:13:13.738Z,100012.52
2018-02-02T23:15:41.265Z,100015.16
2018-02-02T23:18:09.483Z,100013.50
2018-02-02T23:20:38.105Z,100009.27
2018-02-02T23:23:05.622Z,100014.83
2018-02-02T23:25:33.141Z,100010.88
2018-02-02T23:28:00.664Z,100003.90
2018-02-02T23:30:28.189Z,100007.08
2018-02-02T23:32:55.710Z,100003.09
2018-02-02T23:35:23.286Z,100001.27
2018-02-02T23:37:50.812Z,100000.00
2018-02-02T23:40:18.362Z,100001.25
2018-02-02T23:42:45.888Z,100002.14
2018-02-02T23:45:13.429Z,99999.03
2018-02-02T23:47:40.949Z,99995.84
2018-02-02T23:50:09.988Z,99999.48
2018-02-02T23:52:37.501Z,100000.30
2018-02-02T23:55:05.045Z,99995.48
2018-02-02T23:57:32.544Z,99994.87
